sensor_id;sensor_type;location;lat;lon;timestamp;P1;durP1;ratioP1;P2;durP2;ratioP2
62582;SDS011;48641;51.676;5.808;2023-05-10T00:01:22;8.52;;;4.20;;
62582;SDS011;48641;51.676;5.808;2023-05-10T00:03:48;8.82;;;4.57;;
62582;SDS011;48641;51.676;5.808;2023-05-10T00:06:14;9.05;;;4.55;;
62582;SDS011;48641;51.676;5.808;2023-05-10T00:08:39;8.55;;;4.40;;
62582;SDS011;48641;51.676;5.808;2023-05-10T00:11:05;9.05;;;4.07;;
62582;SDS011;48641;51.676;5.808;2023-05-10T00:13:31;9.02;;;4.38;;
62582;SDS011;48641;51.676;5.808;2023-05-10T00:15:57;8.63;;;4.32;;
62582;SDS011;48641;51.676;5.808;2023-05-10T00:18:22;8.93;;;4.50;;
62582;SDS011;48641;51.676;5.808;2023-05-10T00:20:48;8.73;;;4.43;;
62582;SDS011;48641;51.676;5.808;2023-05-10T00:23:14;7.93;;;3.85;;
62582;SDS011;48641;51.676;5.808;2023-05-10T00:25:39;9.52;;;4.90;;
62582;SDS011;48641;51.676;5.808;2023-05-10T00:28:05;8.68;;;4.10;;
62582;SDS011;48641;51.676;5.808;2023-05-10T00:30:30;9.68;;;4.50;;
62582;SDS011;48641;51.676;5.808;2023-05-10T00:32:56;8.23;;;3.97;;
62582;SDS011;48641;51.676;5.808;2023-05-10T00:35:22;9.45;;;4.35;;
62582;SDS011;48641;51.676;5.808;2023-05-10T00:37:47;8.05;;;4.03;;
62582;SDS011;48641;51.676;5.808;2023-05-10T00:40:13;8.90;;;4.20;;
62582;SDS011;48641;51.676;5.808;2023-05-10T00:42:39;8.38;;;3.88;;
62582;SDS011;48641;51.676;5.808;2023-05-10T00:45:05;9.18;;;4.10;;
62582;SDS011;48641;51.676;5.808;2023-05-10T00:47:31;7.93;;;3.72;;
62582;SDS011;48641;51.676;5.808;2023-05-10T00:49:57;9.27;;;3.90;;
62582;SDS011;48641;51.676;5.808;2023-05-10T00:52:25;9.75;;;4.63;;
62582;SDS011;48641;51.676;5.808;2023-05-10T00:54:52;9.00;;;4.03;;
62582;SDS011;48641;51.676;5.808;2023-05-10T00:57:18;7.78;;;3.85;;
62582;SDS011;48641;51.676;5.808;2023-05-10T00:59:44;8.68;;;3.72;;
62582;SDS011;48641;51.676;5.808;2023-05-10T01:02:10;8.75;;;3.72;;
62582;SDS011;48641;51.676;5.808;2023-05-10T01:04:36;7.50;;;3.60;;
62582;SDS011;48641;51.676;5.808;2023-05-10T01:07:03;7.88;;;3.83;;
62582;SDS011;48641;51.676;5.808;2023-05-10T01:09:28;8.07;;;4.10;;
62582;SDS011;48641;51.676;5.808;2023-05-10T01:11:54;7.93;;;3.88;;
62582;SDS011;48641;51.676;5.808;2023-05-10T01:14:20;8.27;;;4.00;;
62582;SDS011;48641;51.676;5.808;2023-05-10T01:16:47;8.60;;;4.35;;
62582;SDS011;48641;51.676;5.808;2023-05-10T01:19:18;7.85;;;3.75;;
62582;SDS011;48641;51.676;5.808;2023-05-10T01:24:36;7.50;;;3.67;;
62582;SDS011;48641;51.676;5.808;2023-05-10T01:27:31;8.35;;;4.00;;
62582;SDS011;48641;51.676;5.808;2023-05-10T01:33:18;7.40;;;3.47;;
62582;SDS011;48641;51.676;5.808;2023-05-10T01:38:47;7.93;;;3.50;;
62582;SDS011;48641;51.676;5.808;2023-05-10T01:46:26;8.73;;;3.83;;
62582;SDS011;48641;51.676;5.808;2023-05-10T01:48:57;7.82;;;3.67;;
62582;SDS011;48641;51.676;5.808;2023-05-10T01:51:25;8.27;;;3.83;;
62582;SDS011;48641;51.676;5.808;2023-05-10T01:53:59;7.22;;;3.42;;
62582;SDS011;48641;51.676;5.808;2023-05-10T01:56:26;7.45;;;3.55;;
62582;SDS011;48641;51.676;5.808;2023-05-10T01:58:55;8.70;;;3.80;;
62582;SDS011;48641;51.676;5.808;2023-05-10T02:01:21;6.80;;;3.30;;
62582;SDS011;48641;51.676;5.808;2023-05-10T02:03:48;8.13;;;3.35;;
62582;SDS011;48641;51.676;5.808;2023-05-10T02:06:15;7.38;;;3.40;;
62582;SDS011;48641;51.676;5.808;2023-05-10T02:08:43;7.03;;;3.60;;
62582;SDS011;48641;51.676;5.808;2023-05-10T02:11:12;7.47;;;3.50;;
62582;SDS011;48641;51.676;5.808;2023-05-10T02:13:38;7.55;;;3.45;;
62582;SDS011;48641;51.676;5.808;2023-05-10T02:16:05;8.68;;;3.65;;
62582;SDS011;48641;51.676;5.808;2023-05-10T02:18:32;6.95;;;3.28;;
62582;SDS011;48641;51.676;5.808;2023-05-10T02:20:59;8.05;;;3.47;;
62582;SDS011;48641;51.676;5.808;2023-05-10T02:23:27;8.25;;;3.63;;
62582;SDS011;48641;51.676;5.808;2023-05-10T02:25:54;8.18;;;3.47;;
62582;SDS011;48641;51.676;5.808;2023-05-10T02:28:23;7.20;;;3.55;;
62582;SDS011;48641;51.676;5.808;2023-05-10T02:30:50;7.97;;;3.70;;
62582;SDS011;48641;51.676;5.808;2023-05-10T02:33:16;8.18;;;3.60;;
62582;SDS011;48641;51.676;5.808;2023-05-10T02:35:44;8.10;;;3.38;;
62582;SDS011;48641;51.676;5.808;2023-05-10T02:38:11;7.72;;;3.97;;
62582;SDS011;48641;51.676;5.808;2023-05-10T05:39:39;9.40;;;4.55;;
62582;SDS011;48641;51.676;5.808;2023-05-10T05:42:04;9.43;;;4.65;;
62582;SDS011;48641;51.676;5.808;2023-05-10T05:44:30;9.20;;;4.38;;
62582;SDS011;48641;51.676;5.808;2023-05-10T05:46:56;9.23;;;4.57;;
62582;SDS011;48641;51.676;5.808;2023-05-10T05:49:21;9.32;;;4.80;;
62582;SDS011;48641;51.676;5.808;2023-05-10T05:51:47;9.85;;;4.53;;
62582;SDS011;48641;51.676;5.808;2023-05-10T05:54:14;9.50;;;4.72;;
62582;SDS011;48641;51.676;5.808;2023-05-10T05:56:40;8.98;;;4.50;;
62582;SDS011;48641;51.676;5.808;2023-05-10T05:59:05;8.85;;;4.25;;
62582;SDS011;48641;51.676;5.808;2023-05-10T06:01:31;8.93;;;4.80;;
62582;SDS011;48641;51.676;5.808;2023-05-10T06:03:56;8.95;;;4.20;;
62582;SDS011;48641;51.676;5.808;2023-05-10T06:06:22;10.00;;;4.72;;
62582;SDS011;48641;51.676;5.808;2023-05-10T06:08:48;8.48;;;4.35;;
62582;SDS011;48641;51.676;5.808;2023-05-10T06:11:13;9.52;;;4.63;;
62582;SDS011;48641;51.676;5.808;2023-05-10T06:13:39;9.00;;;4.68;;
62582;SDS011;48641;51.676;5.808;2023-05-10T06:16:04;9.60;;;4.40;;
62582;SDS011;48641;51.676;5.808;2023-05-10T06:18:30;8.27;;;4.50;;
62582;SDS011;48641;51.676;5.808;2023-05-10T06:20:56;9.40;;;4.45;;
62582;SDS011;48641;51.676;5.808;2023-05-10T06:23:22;8.90;;;4.38;;
62582;SDS011;48641;51.676;5.808;2023-05-10T06:25:48;9.40;;;4.65;;
62582;SDS011;48641;51.676;5.808;2023-05-10T06:28:13;9.23;;;4.35;;
62582;SDS011;48641;51.676;5.808;2023-05-10T06:30:39;9.43;;;4.60;;
62582;SDS011;48641;51.676;5.808;2023-05-10T06:33:04;9.05;;;4.40;;
62582;SDS011;48641;51.676;5.808;2023-05-10T06:35:30;9.80;;;5.00;;
62582;SDS011;48641;51.676;5.808;2023-05-10T06:37:58;10.20;;;4.95;;
62582;SDS011;48641;51.676;5.808;2023-05-10T06:40:24;8.95;;;4.45;;
62582;SDS011;48641;51.676;5.808;2023-05-10T06:42:49;8.85;;;4.30;;
62582;SDS011;48641;51.676;5.808;2023-05-10T06:45:15;9.60;;;4.85;;
62582;SDS011;48641;51.676;5.808;2023-05-10T06:47:41;9.23;;;4.20;;
62582;SDS011;48641;51.676;5.808;2023-05-10T06:50:10;9.25;;;4.55;;
62582;SDS011;48641;51.676;5.808;2023-05-10T06:52:38;8.68;;;4.18;;
62582;SDS011;48641;51.676;5.808;2023-05-10T06:55:04;8.65;;;4.28;;
62582;SDS011;48641;51.676;5.808;2023-05-10T06:57:30;8.70;;;4.55;;
62582;SDS011;48641;51.676;5.808;2023-05-10T06:59:57;7.32;;;3.97;;
62582;SDS011;48641;51.676;5.808;2023-05-10T07:02:23;8.10;;;4.40;;
62582;SDS011;48641;51.676;5.808;2023-05-10T07:04:49;7.50;;;4.25;;
62582;SDS011;48641;51.676;5.808;2023-05-10T07:07:15;8.50;;;4.00;;
62582;SDS011;48641;51.676;5.808;2023-05-10T07:09:40;9.10;;;4.65;;
62582;SDS011;48641;51.676;5.808;2023-05-10T07:12:07;10.43;;;4.45;;
62582;SDS011;48641;51.676;5.808;2023-05-10T07:14:32;9.05;;;4.25;;
62582;SDS011;48641;51.676;5.808;2023-05-10T07:16:58;8.90;;;4.30;;
62582;SDS011;48641;51.676;5.808;2023-05-10T07:19:23;8.63;;;4.03;;
62582;SDS011;48641;51.676;5.808;2023-05-10T07:21:49;8.18;;;4.20;;
62582;SDS011;48641;51.676;5.808;2023-05-10T07:24:15;9.60;;;4.95;;
62582;SDS011;48641;51.676;5.808;2023-05-10T07:26:41;9.27;;;4.88;;
62582;SDS011;48641;51.676;5.808;2023-05-10T07:29:06;8.40;;;3.92;;
62582;SDS011;48641;51.676;5.808;2023-05-10T07:31:32;8.63;;;4.32;;
62582;SDS011;48641;51.676;5.808;2023-05-10T07:33:58;8.70;;;4.22;;
62582;SDS011;48641;51.676;5.808;2023-05-10T07:36:23;8.82;;;4.47;;
62582;SDS011;48641;51.676;5.808;2023-05-10T07:38:49;8.07;;;3.83;;
62582;SDS011;48641;51.676;5.808;2023-05-10T07:41:18;8.07;;;4.22;;
62582;SDS011;48641;51.676;5.808;2023-05-10T07:43:43;8.95;;;4.47;;
62582;SDS011;48641;51.676;5.808;2023-05-10T07:46:09;9.82;;;4.53;;
62582;SDS011;48641;51.676;5.808;2023-05-10T07:48:36;10.68;;;4.25;;
62582;SDS011;48641;51.676;5.808;2023-05-10T07:51:02;9.18;;;4.25;;
62582;SDS011;48641;51.676;5.808;2023-05-10T07:53:27;9.70;;;4.97;;
62582;SDS011;48641;51.676;5.808;2023-05-10T07:55:57;9.27;;;4.13;;
62582;SDS011;48641;51.676;5.808;2023-05-10T07:58:23;43.67;;;7.15;;
62582;SDS011;48641;51.676;5.808;2023-05-10T08:00:49;13.35;;;4.55;;
62582;SDS011;48641;51.676;5.808;2023-05-10T08:03:15;11.20;;;4.82;;
62582;SDS011;48641;51.676;5.808;2023-05-10T08:05:41;12.57;;;4.85;;
62582;SDS011;48641;51.676;5.808;2023-05-10T08:08:06;13.38;;;5.13;;
62582;SDS011;48641;51.676;5.808;2023-05-10T08:10:32;12.52;;;4.85;;
62582;SDS011;48641;51.676;5.808;2023-05-10T08:12:58;9.60;;;5.13;;
62582;SDS011;48641;51.676;5.808;2023-05-10T08:15:23;11.30;;;4.85;;
62582;SDS011;48641;51.676;5.808;2023-05-10T08:17:50;12.70;;;5.15;;
62582;SDS011;48641;51.676;5.808;2023-05-10T08:20:16;14.52;;;6.60;;
62582;SDS011;48641;51.676;5.808;2023-05-10T08:22:44;12.73;;;6.20;;
62582;SDS011;48641;51.676;5.808;2023-05-10T08:25:10;14.07;;;6.43;;
62582;SDS011;48641;51.676;5.808;2023-05-10T08:27:35;10.88;;;5.97;;
62582;SDS011;48641;51.676;5.808;2023-05-10T08:30:01;14.65;;;6.75;;
62582;SDS011;48641;51.676;5.808;2023-05-10T08:32:27;14.13;;;5.85;;
62582;SDS011;48641;51.676;5.808;2023-05-10T08:34:52;11.15;;;6.35;;
62582;SDS011;48641;51.676;5.808;2023-05-10T08:37:18;12.45;;;5.97;;
62582;SDS011;48641;51.676;5.808;2023-05-10T08:39:43;13.18;;;5.85;;
62582;SDS011;48641;51.676;5.808;2023-05-10T08:42:12;13.50;;;6.30;;
62582;SDS011;48641;51.676;5.808;2023-05-10T08:44:44;12.50;;;5.78;;
62582;SDS011;48641;51.676;5.808;2023-05-10T08:47:13;13.52;;;5.78;;
62582;SDS011;48641;51.676;5.808;2023-05-10T08:49:41;11.45;;;5.97;;
62582;SDS011;48641;51.676;5.808;2023-05-10T08:52:08;9.90;;;5.20;;
62582;SDS011;48641;51.676;5.808;2023-05-10T08:54:38;10.95;;;5.45;;
62582;SDS011;48641;51.676;5.808;2023-05-10T08:57:03;11.25;;;5.75;;
62582;SDS011;48641;51.676;5.808;2023-05-10T08:59:29;11.35;;;5.78;;
62582;SDS011;48641;51.676;5.808;2023-05-10T09:01:58;11.13;;;5.93;;
62582;SDS011;48641;51.676;5.808;2023-05-10T09:04:24;10.82;;;5.57;;
62582;SDS011;48641;51.676;5.808;2023-05-10T09:06:51;12.30;;;5.68;;
62582;SDS011;48641;51.676;5.808;2023-05-10T09:09:17;12.35;;;6.05;;
62582;SDS011;48641;51.676;5.808;2023-05-10T09:11:43;10.00;;;5.00;;
62582;SDS011;48641;51.676;5.808;2023-05-10T09:14:09;9.50;;;4.93;;
62582;SDS011;48641;51.676;5.808;2023-05-10T09:16:37;10.27;;;5.43;;
62582;SDS011;48641;51.676;5.808;2023-05-10T09:19:02;9.10;;;4.97;;
62582;SDS011;48641;51.676;5.808;2023-05-10T09:21:28;12.63;;;6.00;;
62582;SDS011;48641;51.676;5.808;2023-05-10T09:23:55;13.10;;;5.57;;
62582;SDS011;48641;51.676;5.808;2023-05-10T09:26:24;17.63;;;5.90;;
62582;SDS011;48641;51.676;5.808;2023-05-10T09:28:56;13.13;;;5.95;;
62582;SDS011;48641;51.676;5.808;2023-05-10T09:31:23;13.93;;;5.40;;
62582;SDS011;48641;51.676;5.808;2023-05-10T09:33:52;13.02;;;5.85;;
62582;SDS011;48641;51.676;5.808;2023-05-10T09:36:18;11.85;;;6.03;;
62582;SDS011;48641;51.676;5.808;2023-05-10T09:38:51;14.88;;;6.13;;
62582;SDS011;48641;51.676;5.808;2023-05-10T09:41:23;16.02;;;6.35;;
62582;SDS011;48641;51.676;5.808;2023-05-10T09:43:50;13.30;;;6.18;;
62582;SDS011;48641;51.676;5.808;2023-05-10T09:46:20;16.42;;;6.00;;
62582;SDS011;48641;51.676;5.808;2023-05-10T09:48:46;14.48;;;5.90;;
62582;SDS011;48641;51.676;5.808;2023-05-10T09:51:21;12.73;;;6.10;;
62582;SDS011;48641;51.676;5.808;2023-05-10T09:53:50;13.95;;;6.03;;
62582;SDS011;48641;51.676;5.808;2023-05-10T09:56:41;17.52;;;6.10;;
62582;SDS011;48641;51.676;5.808;2023-05-10T09:59:09;13.40;;;5.82;;
62582;SDS011;48641;51.676;5.808;2023-05-10T10:01:36;15.25;;;6.45;;
62582;SDS011;48641;51.676;5.808;2023-05-10T10:04:03;11.35;;;5.57;;
62582;SDS011;48641;51.676;5.808;2023-05-10T10:06:34;14.07;;;5.85;;
62582;SDS011;48641;51.676;5.808;2023-05-10T10:09:01;14.32;;;5.90;;
62582;SDS011;48641;51.676;5.808;2023-05-10T10:11:27;12.05;;;5.80;;
62582;SDS011;48641;51.676;5.808;2023-05-10T10:13:53;12.68;;;5.63;;
62582;SDS011;48641;51.676;5.808;2023-05-10T10:16:20;12.45;;;6.20;;
62582;SDS011;48641;51.676;5.808;2023-05-10T10:18:46;12.80;;;5.43;;
62582;SDS011;48641;51.676;5.808;2023-05-10T10:21:13;11.85;;;5.85;;
62582;SDS011;48641;51.676;5.808;2023-05-10T10:23:39;12.30;;;5.28;;
62582;SDS011;48641;51.676;5.808;2023-05-10T10:26:06;11.45;;;5.60;;
62582;SDS011;48641;51.676;5.808;2023-05-10T10:28:38;10.73;;;5.50;;
62582;SDS011;48641;51.676;5.808;2023-05-10T10:31:14;11.95;;;5.60;;
62582;SDS011;48641;51.676;5.808;2023-05-10T10:33:55;10.48;;;5.53;;
62582;SDS011;48641;51.676;5.808;2023-05-10T10:36:25;12.10;;;5.65;;
62582;SDS011;48641;51.676;5.808;2023-05-10T10:41:38;12.13;;;5.70;;
62582;SDS011;48641;51.676;5.808;2023-05-10T10:54:58;10.40;;;5.22;;
62582;SDS011;48641;51.676;5.808;2023-05-10T10:57:24;12.02;;;5.20;;
62582;SDS011;48641;51.676;5.808;2023-05-10T10:59:51;9.50;;;5.00;;
62582;SDS011;48641;51.676;5.808;2023-05-10T11:07:51;10.52;;;4.70;;
62582;SDS011;48641;51.676;5.808;2023-05-10T11:10:21;9.57;;;5.22;;
62582;SDS011;48641;51.676;5.808;2023-05-10T11:12:51;11.00;;;5.15;;
62582;SDS011;48641;51.676;5.808;2023-05-10T11:15:18;11.43;;;4.70;;
62582;SDS011;48641;51.676;5.808;2023-05-10T11:17:44;9.23;;;5.05;;
62582;SDS011;48641;51.676;5.808;2023-05-10T11:20:15;8.68;;;4.75;;
62582;SDS011;48641;51.676;5.808;2023-05-10T11:22:51;10.18;;;5.00;;
62582;SDS011;48641;51.676;5.808;2023-05-10T11:25:18;9.15;;;4.80;;
62582;SDS011;48641;51.676;5.808;2023-05-10T11:27:44;10.23;;;4.65;;
62582;SDS011;48641;51.676;5.808;2023-05-10T11:30:10;9.77;;;4.53;;
62582;SDS011;48641;51.676;5.808;2023-05-10T11:32:37;10.82;;;5.18;;
62582;SDS011;48641;51.676;5.808;2023-05-10T11:35:07;9.90;;;5.05;;
62582;SDS011;48641;51.676;5.808;2023-05-10T11:37:34;8.75;;;4.47;;
62582;SDS011;48641;51.676;5.808;2023-05-10T11:39:59;11.20;;;5.72;;
62582;SDS011;48641;51.676;5.808;2023-05-10T11:42:25;12.20;;;5.15;;
62582;SDS011;48641;51.676;5.808;2023-05-10T11:44:52;9.55;;;5.07;;
62582;SDS011;48641;51.676;5.808;2023-05-10T11:47:18;10.98;;;5.45;;
62582;SDS011;48641;51.676;5.808;2023-05-10T11:49:44;8.70;;;4.57;;
62582;SDS011;48641;51.676;5.808;2023-05-10T11:52:10;10.60;;;5.00;;
62582;SDS011;48641;51.676;5.808;2023-05-10T11:54:36;8.40;;;4.78;;
62582;SDS011;48641;51.676;5.808;2023-05-10T11:57:02;9.25;;;5.03;;
62582;SDS011;48641;51.676;5.808;2023-05-10T11:59:28;9.57;;;5.40;;
62582;SDS011;48641;51.676;5.808;2023-05-10T12:01:54;9.50;;;4.50;;
62582;SDS011;48641;51.676;5.808;2023-05-10T12:04:20;8.95;;;4.28;;
62582;SDS011;48641;51.676;5.808;2023-05-10T12:06:46;8.90;;;4.82;;
62582;SDS011;48641;51.676;5.808;2023-05-10T12:09:12;10.93;;;4.95;;
62582;SDS011;48641;51.676;5.808;2023-05-10T12:11:38;9.68;;;5.05;;
62582;SDS011;48641;51.676;5.808;2023-05-10T12:14:05;11.65;;;5.10;;
62582;SDS011;48641;51.676;5.808;2023-05-10T12:16:31;11.60;;;5.45;;
62582;SDS011;48641;51.676;5.808;2023-05-10T12:18:57;10.15;;;4.82;;
62582;SDS011;48641;51.676;5.808;2023-05-10T12:21:25;13.40;;;4.93;;
62582;SDS011;48641;51.676;5.808;2023-05-10T12:23:53;14.18;;;5.32;;
62582;SDS011;48641;51.676;5.808;2023-05-10T12:26:27;11.55;;;5.53;;
62582;SDS011;48641;51.676;5.808;2023-05-10T12:28:53;13.25;;;5.32;;
62582;SDS011;48641;51.676;5.808;2023-05-10T12:31:19;11.90;;;5.15;;
62582;SDS011;48641;51.676;5.808;2023-05-10T12:36:14;12.35;;;5.30;;
62582;SDS011;48641;51.676;5.808;2023-05-10T12:38:42;11.38;;;5.05;;
62582;SDS011;48641;51.676;5.808;2023-05-10T12:41:13;11.30;;;5.25;;
62582;SDS011;48641;51.676;5.808;2023-05-10T12:43:40;11.32;;;4.88;;
62582;SDS011;48641;51.676;5.808;2023-05-10T12:48:35;12.25;;;5.00;;
62582;SDS011;48641;51.676;5.808;2023-05-10T12:51:02;11.13;;;4.90;;
62582;SDS011;48641;51.676;5.808;2023-05-10T12:53:28;11.52;;;4.45;;
62582;SDS011;48641;51.676;5.808;2023-05-10T12:55:54;10.13;;;4.90;;
62582;SDS011;48641;51.676;5.808;2023-05-10T12:58:19;10.80;;;5.20;;
62582;SDS011;48641;51.676;5.808;2023-05-10T13:00:45;9.82;;;4.82;;
62582;SDS011;48641;51.676;5.808;2023-05-10T13:03:11;9.20;;;5.07;;
62582;SDS011;48641;51.676;5.808;2023-05-10T13:05:37;9.30;;;4.78;;
62582;SDS011;48641;51.676;5.808;2023-05-10T13:08:03;9.15;;;4.57;;
62582;SDS011;48641;51.676;5.808;2023-05-10T13:10:32;10.48;;;5.35;;
62582;SDS011;48641;51.676;5.808;2023-05-10T13:12:58;10.27;;;4.75;;
62582;SDS011;48641;51.676;5.808;2023-05-10T13:15:24;32.47;;;8.23;;
62582;SDS011;48641;51.676;5.808;2023-05-10T13:17:50;24.42;;;7.90;;
62582;SDS011;48641;51.676;5.808;2023-05-10T13:20:16;26.58;;;8.73;;
62582;SDS011;48641;51.676;5.808;2023-05-10T13:22:45;21.00;;;6.93;;
62582;SDS011;48641;51.676;5.808;2023-05-10T13:25:11;16.58;;;6.78;;
62582;SDS011;48641;51.676;5.808;2023-05-10T13:27:37;15.70;;;7.13;;
62582;SDS011;48641;51.676;5.808;2023-05-10T13:30:04;18.67;;;6.85;;
62582;SDS011;48641;51.676;5.808;2023-05-10T13:32:30;14.25;;;6.70;;
62582;SDS011;48641;51.676;5.808;2023-05-10T13:34:56;17.30;;;6.75;;
62582;SDS011;48641;51.676;5.808;2023-05-10T13:37:21;15.63;;;6.70;;
62582;SDS011;48641;51.676;5.808;2023-05-10T13:39:47;14.25;;;6.07;;
62582;SDS011;48641;51.676;5.808;2023-05-10T13:42:13;16.60;;;6.32;;
62582;SDS011;48641;51.676;5.808;2023-05-10T13:44:39;19.95;;;6.97;;
62582;SDS011;48641;51.676;5.808;2023-05-10T13:47:05;18.88;;;5.93;;
62582;SDS011;48641;51.676;5.808;2023-05-10T13:49:31;16.38;;;6.82;;
62582;SDS011;48641;51.676;5.808;2023-05-10T13:51:56;15.82;;;6.20;;
62582;SDS011;48641;51.676;5.808;2023-05-10T13:54:23;16.15;;;6.05;;
62582;SDS011;48641;51.676;5.808;2023-05-10T13:56:49;13.10;;;6.10;;
62582;SDS011;48641;51.676;5.808;2023-05-10T13:59:14;18.10;;;6.28;;
62582;SDS011;48641;51.676;5.808;2023-05-10T14:01:40;13.13;;;5.80;;
62582;SDS011;48641;51.676;5.808;2023-05-10T14:04:07;15.73;;;5.63;;
62582;SDS011;48641;51.676;5.808;2023-05-10T14:06:35;14.68;;;5.82;;
62582;SDS011;48641;51.676;5.808;2023-05-10T14:09:01;12.93;;;5.55;;
62582;SDS011;48641;51.676;5.808;2023-05-10T14:11:27;14.07;;;5.63;;
62582;SDS011;48641;51.676;5.808;2023-05-10T14:13:53;13.77;;;5.70;;
62582;SDS011;48641;51.676;5.808;2023-05-10T14:16:19;18.40;;;5.45;;
62582;SDS011;48641;51.676;5.808;2023-05-10T14:18:45;12.63;;;4.93;;
62582;SDS011;48641;51.676;5.808;2023-05-10T14:21:11;11.73;;;4.80;;
62582;SDS011;48641;51.676;5.808;2023-05-10T14:23:36;11.45;;;4.78;;
62582;SDS011;48641;51.676;5.808;2023-05-10T14:26:02;11.07;;;4.53;;
62582;SDS011;48641;51.676;5.808;2023-05-10T14:28:28;12.05;;;4.80;;
62582;SDS011;48641;51.676;5.808;2023-05-10T14:30:53;10.98;;;4.75;;
62582;SDS011;48641;51.676;5.808;2023-05-10T14:33:19;10.20;;;4.32;;
62582;SDS011;48641;51.676;5.808;2023-05-10T14:35:46;12.40;;;4.80;;
62582;SDS011;48641;51.676;5.808;2023-05-10T14:38:12;13.98;;;4.50;;
62582;SDS011;48641;51.676;5.808;2023-05-10T14:40:38;12.32;;;4.75;;
62582;SDS011;48641;51.676;5.808;2023-05-10T14:43:04;13.63;;;4.70;;
62582;SDS011;48641;51.676;5.808;2023-05-10T14:45:29;10.63;;;4.07;;
62582;SDS011;48641;51.676;5.808;2023-05-10T14:47:55;9.98;;;4.28;;
62582;SDS011;48641;51.676;5.808;2023-05-10T14:50:22;13.77;;;4.80;;
62582;SDS011;48641;51.676;5.808;2023-05-10T14:52:47;11.85;;;4.32;;
62582;SDS011;48641;51.676;5.808;2023-05-10T14:55:13;10.77;;;4.32;;
62582;SDS011;48641;51.676;5.808;2023-05-10T14:57:39;9.02;;;4.15;;
62582;SDS011;48641;51.676;5.808;2023-05-10T15:00:05;12.80;;;4.30;;
62582;SDS011;48641;51.676;5.808;2023-05-10T15:02:31;13.18;;;4.40;;
62582;SDS011;48641;51.676;5.808;2023-05-10T15:04:57;10.60;;;3.72;;
62582;SDS011;48641;51.676;5.808;2023-05-10T15:07:23;13.18;;;4.10;;
62582;SDS011;48641;51.676;5.808;2023-05-10T15:09:49;14.43;;;4.78;;
62582;SDS011;48641;51.676;5.808;2023-05-10T15:12:16;12.05;;;4.15;;
62582;SDS011;48641;51.676;5.808;2023-05-10T15:14:42;13.57;;;4.10;;
62582;SDS011;48641;51.676;5.808;2023-05-10T15:17:08;12.95;;;4.35;;
62582;SDS011;48641;51.676;5.808;2023-05-10T15:19:33;11.52;;;4.20;;
62582;SDS011;48641;51.676;5.808;2023-05-10T15:21:59;11.07;;;3.88;;
62582;SDS011;48641;51.676;5.808;2023-05-10T15:24:25;10.25;;;4.88;;
62582;SDS011;48641;51.676;5.808;2023-05-10T15:26:50;16.02;;;4.88;;
62582;SDS011;48641;51.676;5.808;2023-05-10T15:29:16;10.45;;;4.55;;
62582;SDS011;48641;51.676;5.808;2023-05-10T15:31:48;12.30;;;4.35;;
62582;SDS011;48641;51.676;5.808;2023-05-10T15:34:16;10.63;;;4.45;;
62582;SDS011;48641;51.676;5.808;2023-05-10T15:36:43;8.88;;;4.32;;
62582;SDS011;48641;51.676;5.808;2023-05-10T15:39:10;12.30;;;4.53;;
62582;SDS011;48641;51.676;5.808;2023-05-10T15:41:36;8.85;;;3.90;;
62582;SDS011;48641;51.676;5.808;2023-05-10T15:44:02;12.05;;;4.85;;
62582;SDS011;48641;51.676;5.808;2023-05-10T15:46:28;9.88;;;4.30;;
62582;SDS011;48641;51.676;5.808;2023-05-10T15:48:54;12.43;;;4.45;;
62582;SDS011;48641;51.676;5.808;2023-05-10T15:51:20;9.18;;;3.95;;
62582;SDS011;48641;51.676;5.808;2023-05-10T15:53:46;7.70;;;3.97;;
62582;SDS011;48641;51.676;5.808;2023-05-10T15:56:12;9.52;;;3.90;;
62582;SDS011;48641;51.676;5.808;2023-05-10T15:58:38;11.07;;;4.40;;
62582;SDS011;48641;51.676;5.808;2023-05-10T16:01:04;9.70;;;4.40;;
62582;SDS011;48641;51.676;5.808;2023-05-10T16:03:30;10.30;;;4.45;;
62582;SDS011;48641;51.676;5.808;2023-05-10T16:05:56;9.70;;;3.95;;
62582;SDS011;48641;51.676;5.808;2023-05-10T16:08:21;9.38;;;4.32;;
62582;SDS011;48641;51.676;5.808;2023-05-10T16:10:48;8.70;;;3.60;;
62582;SDS011;48641;51.676;5.808;2023-05-10T16:13:15;10.75;;;4.30;;
62582;SDS011;48641;51.676;5.808;2023-05-10T16:15:41;10.48;;;4.47;;
62582;SDS011;48641;51.676;5.808;2023-05-10T16:18:07;9.70;;;3.80;;
62582;SDS011;48641;51.676;5.808;2023-05-10T16:20:33;11.75;;;4.60;;
62582;SDS011;48641;51.676;5.808;2023-05-10T16:23:02;9.88;;;4.30;;
62582;SDS011;48641;51.676;5.808;2023-05-10T16:25:29;9.98;;;4.32;;
62582;SDS011;48641;51.676;5.808;2023-05-10T16:27:54;9.90;;;4.40;;
62582;SDS011;48641;51.676;5.808;2023-05-10T16:30:20;8.50;;;4.40;;
62582;SDS011;48641;51.676;5.808;2023-05-10T16:32:45;10.07;;;4.20;;
62582;SDS011;48641;51.676;5.808;2023-05-10T16:35:11;11.18;;;4.55;;
62582;SDS011;48641;51.676;5.808;2023-05-10T16:37:37;9.27;;;4.50;;
62582;SDS011;48641;51.676;5.808;2023-05-10T16:40:03;10.18;;;4.03;;
62582;SDS011;48641;51.676;5.808;2023-05-10T16:42:29;10.90;;;4.40;;
62582;SDS011;48641;51.676;5.808;2023-05-10T16:44:54;11.43;;;4.68;;
62582;SDS011;48641;51.676;5.808;2023-05-10T16:47:20;8.57;;;4.22;;
62582;SDS011;48641;51.676;5.808;2023-05-10T16:49:46;9.88;;;4.53;;
62582;SDS011;48641;51.676;5.808;2023-05-10T16:52:11;10.45;;;4.78;;
62582;SDS011;48641;51.676;5.808;2023-05-10T16:54:37;10.90;;;4.30;;
62582;SDS011;48641;51.676;5.808;2023-05-10T16:57:03;6.93;;;3.60;;
62582;SDS011;48641;51.676;5.808;2023-05-10T16:59:28;8.90;;;3.83;;
62582;SDS011;48641;51.676;5.808;2023-05-10T17:01:54;9.38;;;5.15;;
62582;SDS011;48641;51.676;5.808;2023-05-10T17:04:19;9.55;;;4.50;;
62582;SDS011;48641;51.676;5.808;2023-05-10T17:06:45;9.10;;;4.10;;
62582;SDS011;48641;51.676;5.808;2023-05-10T17:09:11;9.52;;;4.10;;
62582;SDS011;48641;51.676;5.808;2023-05-10T17:11:36;10.05;;;4.30;;
62582;SDS011;48641;51.676;5.808;2023-05-10T17:14:02;9.23;;;4.43;;
62582;SDS011;48641;51.676;5.808;2023-05-10T17:16:28;8.52;;;3.85;;
62582;SDS011;48641;51.676;5.808;2023-05-10T17:18:54;9.38;;;4.18;;
62582;SDS011;48641;51.676;5.808;2023-05-10T17:21:19;8.85;;;4.45;;
62582;SDS011;48641;51.676;5.808;2023-05-10T17:23:45;7.53;;;3.97;;
62582;SDS011;48641;51.676;5.808;2023-05-10T17:26:10;10.30;;;4.28;;
62582;SDS011;48641;51.676;5.808;2023-05-10T17:28:39;7.85;;;3.92;;
62582;SDS011;48641;51.676;5.808;2023-05-10T17:31:08;8.07;;;4.15;;
62582;SDS011;48641;51.676;5.808;2023-05-10T17:33:34;9.02;;;4.57;;
62582;SDS011;48641;51.676;5.808;2023-05-10T17:35:59;8.30;;;4.25;;
62582;SDS011;48641;51.676;5.808;2023-05-10T17:38:25;8.38;;;4.00;;
62582;SDS011;48641;51.676;5.808;2023-05-10T17:40:51;8.50;;;3.97;;
62582;SDS011;48641;51.676;5.808;2023-05-10T17:43:16;8.80;;;4.18;;
62582;SDS011;48641;51.676;5.808;2023-05-10T17:45:46;9.63;;;4.00;;
62582;SDS011;48641;51.676;5.808;2023-05-10T17:48:13;9.40;;;3.97;;
62582;SDS011;48641;51.676;5.808;2023-05-10T17:50:40;8.20;;;3.90;;
62582;SDS011;48641;51.676;5.808;2023-05-10T17:53:07;7.35;;;3.50;;
62582;SDS011;48641;51.676;5.808;2023-05-10T17:55:33;9.48;;;4.13;;
62582;SDS011;48641;51.676;5.808;2023-05-10T17:57:58;8.50;;;4.35;;
62582;SDS011;48641;51.676;5.808;2023-05-10T18:00:24;9.98;;;3.90;;
62582;SDS011;48641;51.676;5.808;2023-05-10T18:02:50;9.00;;;4.28;;
62582;SDS011;48641;51.676;5.808;2023-05-10T18:05:16;9.52;;;4.80;;
62582;SDS011;48641;51.676;5.808;2023-05-10T18:07:41;8.27;;;3.95;;
62582;SDS011;48641;51.676;5.808;2023-05-10T18:10:07;8.13;;;3.85;;
62582;SDS011;48641;51.676;5.808;2023-05-10T18:12:34;9.18;;;4.40;;
62582;SDS011;48641;51.676;5.808;2023-05-10T18:15:00;9.63;;;4.30;;